Time;durP1;ratioP1;P1;durP2;ratioP2;P2;SDS_P1;SDS_P2;PMS_P1;PMS_P2;Temp;Humidity;BMP_temperature;BMP_pressure;BME280_temperature;BME280_humidity;BME280_pressure;Samples;Min_cycle;Max_cycle;Signal;HPM_P1;HPM_P2
2022/02/18 00:01:21;;;;;;;17.57;4.07;;;9.20;60.50;;;9.29;51.99;97470.88;6233481;23;20034;-38
2022/02/18 00:03:49;;;;;;;12.93;3.60;;;9.30;60.60;;;9.21;52.15;97458.38;6233023;23;20226;-38
2022/02/18 00:06:17;;;;;;;8.80;3.90;;;9.20;60.20;;;9.22;51.99;97459.22;6235125;23;20034;-39
2022/02/18 00:08:45;;;;;;;11.27;4.00;;;9.20;60.20;;;9.19;52.09;97456.84;6237718;23;20679;-39
2022/02/18 00:11:13;;;;;;;15.90;3.93;;;9.20;60.20;;;9.17;51.87;97462.34;6234915;23;20020;-39
2022/02/18 00:13:41;;;;;;;12.80;3.80;;;9.20;60.00;;;9.18;52.18;97453.38;6209756;23;20012;-38
2022/02/18 00:16:09;;;;;;;15.43;5.07;;;9.20;60.10;;;9.20;52.11;97442.59;6234821;23;20282;-39
2022/02/18 00:18:37;;;;;;;14.30;3.53;;;9.20;60.00;;;9.22;51.96;97460.03;6234547;23;20322;-38
2022/02/18 00:21:05;;;;;;;11.23;4.23;;;9.30;60.00;;;9.23;51.70;97450.28;6210210;23;20023;-39
2022/02/18 00:23:35;;;;;;;15.70;3.93;;;9.30;59.60;;;9.22;51.73;97456.56;6234670;23;20035;-39
2022/02/18 00:26:03;;;;;;;15.27;3.93;;;9.30;59.50;;;9.21;51.57;97457.56;6234836;23;20034;-38
2022/02/18 00:28:31;;;;;;;10.73;4.40;;;9.30;59.30;;;9.21;51.85;97449.59;6236436;23;20012;-39
2022/02/18 00:31:01;;;;;;;14.13;4.30;;;9.30;59.50;;;9.22;51.76;97425.50;6234680;23;20031;-38
2022/02/18 00:33:29;;;;;;;12.60;4.97;;;9.30;59.30;;;9.24;51.69;97439.47;6233514;23;20024;-39
2022/02/18 00:35:57;;;;;;;12.13;4.10;;;9.30;59.50;;;9.20;51.57;97422.19;6236181;23;20415;-39
2022/02/18 00:38:28;;;;;;;15.47;5.27;;;9.30;59.20;;;9.25;51.49;97438.50;6218022;23;20016;-39
2022/02/18 00:40:57;;;;;;;13.43;4.00;;;9.30;59.30;;;9.26;51.69;97441.97;6233501;23;20029;-38
2022/02/18 00:43:25;;;;;;;14.07;4.10;;;9.40;59.00;;;9.33;51.87;97442.19;6236745;23;20030;-38
2022/02/18 00:45:53;;;;;;;11.43;4.07;;;9.40;59.10;;;9.34;51.34;97452.63;6234691;23;20302;-38
2022/02/18 00:48:21;;;;;;;14.27;3.67;;;9.50;58.70;;;9.32;51.39;97453.78;6207394;23;20030;-39
2022/02/18 00:50:48;;;;;;;11.83;4.10;;;9.40;58.70;;;9.35;51.21;97440.19;6236400;23;20042;-38
2022/02/18 00:53:19;;;;;;;11.03;4.83;;;9.40;58.70;;;9.37;51.69;97452.31;6209432;23;20016;-38
2022/02/18 00:55:50;;;;;;;12.90;4.23;;;9.50;58.70;;;9.41;51.39;97444.88;6208896;23;20012;-39
2022/02/18 00:58:20;;;;;;;16.90;3.60;;;9.50;58.90;;;9.42;50.97;97450.03;6233851;23;20016;-38
2022/02/18 01:00:49;;;;;;;15.40;5.10;;;9.50;58.80;;;9.42;51.24;97447.38;6233728;23;20020;-39
2022/02/18 01:03:18;;;;;;;12.80;3.40;;;9.50;58.70;;;9.43;51.20;97454.34;6234056;23;20024;-39
2022/02/18 01:05:47;;;;;;;8.90;3.50;;;9.50;58.50;;;9.45;51.36;97459.50;6234615;23;20030;-39
2022/02/18 01:08:16;;;;;;;16.90;5.13;;;9.50;58.80;;;9.46;51.35;97445.25;6234372;23;20020;-38
2022/02/18 01:10:44;;;;;;;12.00;3.23;;;9.50;58.60;;;9.49;51.27;97460.03;6235353;23;20016;-39
2022/02/18 01:13:12;;;;;;;8.63;3.37;;;9.50;58.60;;;9.49;51.23;97450.22;6234213;23;20209;-39
2022/02/18 01:15:40;;;;;;;20.40;4.80;;;9.60;58.80;;;9.46;51.17;97453.22;6234688;23;20018;-39
2022/02/18 01:18:08;;;;;;;13.53;3.63;;;9.60;58.40;;;9.49;51.15;97452.06;6234206;23;20237;-39
2022/02/18 01:20:36;;;;;;;10.43;2.90;;;9.60;58.50;;;9.50;50.95;97454.56;6206745;23;20024;-38
2022/02/18 01:23:06;;;;;;;14.70;3.67;;;9.60;58.50;;;9.52;50.93;97452.56;6235264;23;20016;-38
2022/02/18 01:25:35;;;;;;;12.20;3.40;;;9.60;58.40;;;9.56;51.10;97453.09;6235062;23;20024;-39
2022/02/18 01:28:04;;;;;;;12.57;3.20;;;9.60;58.30;;;9.58;51.25;97440.47;6235566;23;20012;-38
2022/02/18 01:30:33;;;;;;;6.73;2.83;;;9.70;58.60;;;9.57;50.71;97436.13;6235662;23;20019;-38
2022/02/18 01:33:01;;;;;;;15.93;4.13;;;9.70;58.30;;;9.58;50.88;97443.13;6234203;23;20026;-39
2022/02/18 01:35:33;;;;;;;17.50;4.43;;;9.70;58.10;;;9.61;51.29;97446.28;6244316;23;20205;-39
2022/02/18 01:38:02;;;;;;;10.73;3.20;;;9.70;58.50;;;9.64;51.20;97443.31;6184486;23;20195;-39
2022/02/18 01:40:30;;;;;;;10.47;3.20;;;9.70;58.40;;;9.59;50.66;97432.31;6205780;23;20310;-39
2022/02/18 01:42:59;;;;;;;12.93;3.20;;;9.70;58.10;;;9.63;51.02;97428.38;6246986;23;20011;-38
2022/02/18 01:45:27;;;;;;;11.20;3.90;;;9.70;58.50;;;9.65;50.92;97433.50;6234167;23;20311;-39
2022/02/18 01:47:56;;;;;;;11.17;3.83;;;9.70;58.30;;;9.69;51.01;97439.34;6235472;23;20198;-38
2022/02/18 01:50:24;;;;;;;13.57;4.27;;;9.70;58.30;;;9.68;50.93;97429.72;6234584;23;20012;-38
2022/02/18 01:52:55;;;;;;;11.30;3.20;;;9.70;58.30;;;9.65;50.69;97433.50;6207376;23;20016;-38
2022/02/18 01:55:24;;;;;;;7.13;2.53;;;9.70;58.10;;;9.63;51.04;97441.66;6234001;23;20016;-38
2022/02/18 01:57:56;;;;;;;9.70;3.00;;;9.70;58.30;;;9.64;51.11;97439.84;6235430;23;20012;-38
2022/02/18 02:00:29;;;;;;;12.13;4.70;;;9.70;58.30;;;9.63;51.33;97441.66;6245315;23;20022;-38
2022/02/18 02:02:59;;;;;;;11.93;2.72;;;9.70;58.70;;;9.63;51.01;97443.47;6246086;23;20030;-38
2022/02/18 02:05:27;;;;;;;11.27;3.23;;;9.70;58.60;;;9.64;51.18;97432.69;6208412;23;20028;-38
2022/02/18 02:07:57;;;;;;;11.50;4.20;;;9.70;58.10;;;9.69;51.04;97420.72;6235695;23;20034;-38
2022/02/18 02:10:25;;;;;;;12.50;2.90;;;9.80;58.80;;;9.70;51.21;97427.72;6184089;23;20024;-38
2022/02/18 02:13:00;;;;;;;13.30;2.90;;;9.80;58.50;;;9.68;51.24;97411.09;6208008;23;20024;-38
2022/02/18 02:15:35;;;;;;;10.87;3.77;;;9.80;58.60;;;9.70;51.30;97420.56;6207870;23;20016;-38
2022/02/18 02:18:10;;;;;;;11.17;3.13;;;9.80;58.60;;;9.72;51.02;97415.09;6221002;23;20012;-38
2022/02/18 02:20:38;;;;;;;8.37;2.70;;;9.80;58.80;;;9.72;51.05;97423.91;6208402;23;20034;-38
2022/02/18 02:23:06;;;;;;;14.03;3.83;;;9.80;58.60;;;9.68;51.33;97417.25;6211211;23;20237;-38
2022/02/18 02:25:39;;;;;;;18.13;3.97;;;9.80;58.60;;;9.69;51.49;97413.59;6210430;23;20020;-38
2022/02/18 02:28:36;;;;;;;14.10;3.47;;;9.80;58.70;;;9.70;51.19;97403.81;6225048;23;20024;-38
2022/02/18 02:31:05;;;;;;;9.53;3.50;;;9.70;59.00;;;9.66;51.25;97393.47;6210216;23;20016;-38
2022/02/18 02:33:37;;;;;;;11.33;3.83;;;9.70;58.80;;;9.68;51.02;97371.25;6210226;23;20024;-38
2022/02/18 02:36:06;;;;;;;15.10;3.23;;;9.70;58.90;;;9.73;51.31;97376.88;6208852;23;20344;-38
2022/02/18 02:38:35;;;;;;;11.87;3.37;;;9.70;59.80;;;9.73;51.39;97375.06;6209091;23;20023;-38
2022/02/18 02:41:03;;;;;;;11.07;2.97;;;9.70;58.90;;;9.71;51.05;97376.22;6209550;23;20024;-38
2022/02/18 02:43:34;;;;;;;15.27;3.47;;;9.70;58.70;;;9.66;51.11;97382.03;6208664;23;20302;-38
2022/02/18 02:46:02;;;;;;;10.73;3.00;;;9.70;58.70;;;9.64;51.17;97373.38;6209301;23;20241;-38
2022/02/18 02:48:30;;;;;;;10.07;3.10;;;9.70;58.60;;;9.65;51.32;97365.25;6210604;23;20016;-38
2022/02/18 02:51:04;;;;;;;8.73;3.50;;;9.70;58.70;;;9.68;51.00;97371.25;6207992;23;20016;-38
2022/02/18 02:53:34;;;;;;;13.10;3.83;;;9.70;58.70;;;9.72;51.49;97375.22;6220131;23;20045;-38
2022/02/18 02:56:04;;;;;;;10.43;3.00;;;9.70;58.90;;;9.70;51.33;97369.25;6208856;23;20016;-38
2022/02/18 02:58:34;;;;;;;10.20;3.17;;;9.70;58.90;;;9.69;51.07;97355.09;6210037;23;20306;-37
2022/02/18 03:01:05;;;;;;;11.00;2.90;;;9.70;59.00;;;9.72;51.48;97357.44;6207931;23;20060;-38
2022/02/18 03:03:41;;;;;;;10.37;3.13;;;9.70;59.30;;;9.70;51.29;97348.81;6210651;23;20020;-38
2022/02/18 03:06:09;;;;;;;10.37;2.90;;;9.60;59.10;;;9.70;51.25;97332.03;6210757;23;20023;-38
2022/02/18 03:08:37;;;;;;;10.63;3.17;;;9.60;59.40;;;9.69;51.15;97341.00;6207327;23;20016;-37
2022/02/18 03:11:16;;;;;;;13.53;3.60;;;9.60;59.40;;;9.66;51.43;97331.53;6210264;23;20016;-38
2022/02/18 03:14:05;;;;;;;11.93;3.13;;;9.50;59.50;;;9.64;51.14;97333.50;6234515;23;20034;-38
2022/02/18 03:16:36;;;;;;;10.90;3.00;;;9.50;59.50;;;9.62;51.30;97336.31;6209110;23;20310;-38
2022/02/18 03:19:04;;;;;;;7.30;2.80;;;9.50;59.70;;;9.58;51.40;97332.34;6181992;23;20023;-37
2022/02/18 03:21:32;;;;;;;10.27;4.20;;;9.40;60.10;;;9.56;51.51;97329.00;6186046;23;20016;-37
2022/02/18 03:24:00;;;;;;;12.13;4.07;;;9.30;60.40;;;9.52;51.68;97322.38;6236045;23;20016;-37
2022/02/18 03:26:28;;;;;;;10.57;3.93;;;9.20;60.70;;;9.48;51.85;97310.41;6209213;23;20016;-38
2022/02/18 03:29:08;;;;;;;8.10;2.50;;;9.20;60.90;;;9.43;51.87;97304.72;6209700;23;20024;-37
2022/02/18 03:31:56;;;;;;;12.47;3.43;;;9.10;61.10;;;9.41;52.06;97301.41;6173649;23;20026;-37
2022/02/18 03:34:24;;;;;;;9.60;3.07;;;9.10;61.60;;;9.39;52.08;97298.91;6236379;23;20019;-38
2022/02/18 03:36:52;;;;;;;9.23;3.03;;;9.00;61.60;;;9.36;52.33;97298.38;6209869;23;20022;-37
2022/02/18 03:39:24;;;;;;;10.70;3.20;;;9.00;61.80;;;9.32;52.13;97305.03;6186018;23;20024;-38
2022/02/18 03:41:52;;;;;;;14.23;3.40;;;8.90;61.90;;;9.28;52.11;97296.53;6210569;23;20493;-38
2022/02/18 03:44:23;;;;;;;6.63;2.23;;;8.90;62.00;;;9.25;52.09;97288.91;6209580;23;20026;-39
2022/02/18 03:47:02;;;;;;;18.50;3.87;;;8.90;62.20;;;9.24;52.17;97293.38;6208951;23;20035;-38
2022/02/18 03:49:32;;;;;;;10.37;2.90;;;8.90;62.00;;;9.21;52.41;97301.69;6208948;23;20031;-39
2022/02/18 03:52:02;;;;;;;9.90;3.37;;;8.90;62.10;;;9.19;52.42;97295.69;6209822;23;20219;-39
2022/02/18 03:54:30;;;;;;;8.27;3.37;;;8.80;62.30;;;9.16;52.41;97298.66;6208991;23;20432;-39
2022/02/18 03:56:58;;;;;;;14.23;3.70;;;8.80;62.50;;;9.14;52.64;97282.06;6235248;23;20027;-39
2022/02/18 03:59:29;;;;;;;11.10;3.37;;;8.80;62.70;;;9.12;52.66;97285.88;6208843;23;20208;-38
2022/02/18 04:01:59;;;;;;;11.23;3.03;;;8.80;62.70;;;9.11;52.77;97281.53;6209727;23;20028;-39
2022/02/18 04:04:28;;;;;;;9.33;2.90;;;8.80;62.80;;;9.10;52.99;97282.56;6208744;23;20028;-38
2022/02/18 04:07:21;;;;;;;12.97;3.67;;;8.80;62.60;;;9.09;52.78;97276.38;6208559;23;20034;-38
2022/02/18 04:09:53;;;;;;;12.77;3.40;;;8.80;62.80;;;9.07;52.88;97273.06;6183420;23;20024;-38
2022/02/18 04:12:23;;;;;;;12.03;2.67;;;8.80;62.90;;;9.06;52.93;97282.03;6209384;23;20039;-39
2022/02/18 04:14:54;;;;;;;17.67;3.23;;;8.70;63.10;;;9.05;53.04;97275.91;6208096;23;20346;-39
2022/02/18 04:17:26;;;;;;;12.17;4.00;;;8.70;62.90;;;9.01;53.07;97276.38;6208260;23;20030;-38
2022/02/18 04:20:17;;;;;;;8.50;2.20;;;8.70;63.00;;;8.97;53.09;97273.19;6216075;23;20024;-39
2022/02/18 04:23:16;;;;;;;13.37;5.10;;;8.70;63.30;;;8.95;53.28;97263.72;6189882;23;20034;-38
2022/02/18 04:25:44;;;;;;;10.87;2.47;;;8.70;63.40;;;8.96;53.35;97255.63;6208256;23;20020;-39
2022/02/18 04:28:13;;;;;;;9.17;2.60;;;8.70;63.30;;;9.01;53.27;97249.81;6234810;23;20508;-39
2022/02/18 04:30:41;;;;;;;8.40;2.43;;;8.80;63.10;;;9.04;53.13;97252.16;6235263;23;20026;-38
2022/02/18 04:33:11;;;;;;;11.43;2.80;;;8.80;62.90;;;9.05;53.37;97251.16;6236341;23;20330;-38
2022/02/18 04:35:39;;;;;;;6.63;2.50;;;8.80;62.80;;;9.06;53.37;97237.72;6234896;23;20020;-38
2022/02/18 04:38:07;;;;;;;14.33;3.23;;;8.90;62.80;;;9.07;53.20;97242.03;6234848;23;20024;-39
2022/02/18 04:40:35;;;;;;;8.90;2.40;;;8.90;62.60;;;9.08;53.25;97240.22;6233305;23;20035;-38
2022/02/18 04:43:03;;;;;;;8.70;2.80;;;9.00;62.30;;;9.11;53.14;97242.56;6236128;23;20196;-39
2022/02/18 04:45:31;;;;;;;7.10;3.13;;;9.00;62.30;;;9.13;52.87;97234.41;6235578;23;20031;-39
2022/02/18 04:47:59;;;;;;;9.27;2.90;;;9.00;62.10;;;9.11;52.96;97221.31;6235489;23;20024;-39
2022/02/18 04:50:27;;;;;;;9.53;3.00;;;9.10;62.00;;;9.14;53.30;97213.00;6234857;23;20477;-39
2022/02/18 04:52:54;;;;;;;8.73;2.60;;;9.10;62.20;;;9.13;53.25;97213.16;6235773;23;20018;-39
2022/02/18 04:55:23;;;;;;;7.47;2.20;;;9.10;61.70;;;9.12;53.03;97209.69;6235564;23;20459;-39
2022/02/18 04:57:50;;;;;;;10.17;3.60;;;9.10;61.70;;;9.16;53.25;97207.53;6236111;23;20024;-38
2022/02/18 05:00:20;;;;;;;10.23;2.40;;;9.20;61.70;;;9.16;53.01;97204.88;6236481;23;20016;-38
2022/02/18 05:02:48;;;;;;;9.57;2.80;;;9.20;61.50;;;9.16;53.13;97208.38;6235870;23;20322;-38
2022/02/18 05:05:16;;;;;;;4.53;1.70;;;9.20;61.30;;;9.18;52.84;97208.22;6209787;23;20020;-39
2022/02/18 05:07:44;;;;;;;11.77;2.67;;;9.20;61.40;;;9.23;52.82;97201.41;6235883;23;20023;-38
2022/02/18 05:10:12;;;;;;;10.33;2.73;;;9.20;61.30;;;9.27;52.87;97200.09;6235327;23;20205;-38
2022/02/18 05:12:40;;;;;;;7.33;2.40;;;9.30;61.30;;;9.29;53.11;97197.28;6236170;23;20234;-38
2022/02/18 05:15:10;;;;;;;9.47;2.60;;;9.30;61.40;;;9.30;52.74;97187.47;6235324;23;20012;-39
2022/02/18 05:17:37;;;;;;;9.10;2.30;;;9.20;61.30;;;9.29;52.83;97184.00;6233616;23;20016;-39
2022/02/18 05:20:06;;;;;;;9.10;2.57;;;9.30;61.20;;;9.33;52.61;97184.50;6234833;23;20020;-38
2022/02/18 05:22:34;;;;;;;7.83;2.17;;;9.30;61.30;;;9.33;52.70;97182.66;6234835;23;20026;-38
2022/02/18 05:25:02;;;;;;;8.10;3.30;;;9.30;61.00;;;9.37;52.68;97168.06;6234468;23;20016;-38
2022/02/18 05:27:30;;;;;;;6.43;2.77;;;9.30;61.30;;;9.41;53.06;97153.44;6235299;23;20012;-39
2022/02/18 05:29:58;;;;;;;28.57;18.43;;;9.30;61.70;;;9.45;52.82;97152.09;6234350;23;20012;-39
2022/02/18 05:32:26;;;;;;;26.17;17.23;;;9.40;61.80;;;9.48;53.13;97150.13;6235806;23;20022;-38
2022/02/18 05:34:53;;;;;;;21.20;11.73;;;9.30;62.10;;;9.50;52.97;97142.81;6233508;23;20211;-39
2022/02/18 05:37:21;;;;;;;37.63;19.77;;;9.30;62.30;;;9.52;53.20;97140.81;6235316;23;20020;-38
2022/02/18 05:39:49;;;;;;;81.27;39.63;;;9.40;62.30;;;9.53;53.41;97135.34;6235581;23;20012;-39
2022/02/18 05:42:17;;;;;;;30.50;14.57;;;9.40;62.70;;;9.51;53.33;97126.69;6234134;23;20020;-39
2022/02/18 05:44:44;;;;;;;44.00;22.10;;;9.40;62.70;;;9.51;53.41;97126.69;6235740;23;20462;-39
2022/02/18 05:47:12;;;;;;;37.87;17.93;;;9.40;62.80;;;9.48;53.40;97119.06;6231783;23;20023;-39
2022/02/18 05:49:40;;;;;;;46.20;23.07;;;9.30;63.20;;;9.45;53.62;97109.59;6235065;23;20020;-39
2022/02/18 05:52:08;;;;;;;50.63;26.17;;;9.30;63.30;;;9.46;53.82;97107.78;6238263;23;20012;-39
2022/02/18 05:54:36;;;;;;;35.47;19.00;;;9.30;63.60;;;9.45;53.93;97098.97;6208935;23;20332;-39
2022/02/18 05:57:04;;;;;;;23.80;10.37;;;9.30;63.90;;;9.47;54.03;97093.50;6236059;23;20018;-39
2022/02/18 05:59:32;;;;;;;38.40;18.90;;;9.30;64.00;;;9.45;54.09;97080.38;6235579;23;20018;-39
2022/02/18 06:02:00;;;;;;;41.80;21.73;;;9.30;64.20;;;9.45;54.14;97079.53;6211076;23;20016;-39
2022/02/18 06:04:28;;;;;;;28.60;14.97;;;9.30;64.40;;;9.44;54.60;97070.75;6237494;23;20024;-39
2022/02/18 06:06:55;;;;;;;35.60;17.00;;;9.30;64.60;;;9.43;54.57;97077.06;6210059;23;20016;-36
2022/02/18 06:09:23;;;;;;;32.90;15.90;;;9.30;64.70;;;9.41;54.49;97073.72;6236799;23;20356;-38
2022/02/18 06:11:51;;;;;;;38.83;17.93;;;9.30;64.90;;;9.39;54.68;97080.22;6236225;23;20026;-38
2022/02/18 06:14:19;;;;;;;39.30;18.27;;;9.30;65.10;;;9.38;54.62;97071.44;6236952;23;20020;-37
2022/02/18 06:16:46;;;;;;;17.83;6.37;;;9.20;65.10;;;9.39;55.02;97070.41;6237690;23;20209;-37
2022/02/18 06:19:14;;;;;;;11.60;5.27;;;9.20;65.70;;;9.32;55.24;97065.94;6235340;23;20295;-37
2022/02/18 06:21:43;;;;;;;12.80;5.73;;;9.20;65.90;;;9.29;55.18;97067.13;6248012;23;20023;-37
2022/02/18 06:24:11;;;;;;;10.53;4.77;;;9.10;66.20;;;9.30;55.50;97063.44;6235920;23;20194;-37
2022/02/18 06:26:39;;;;;;;10.47;3.77;;;9.20;66.50;;;9.31;55.36;97061.63;6236423;23;20047;-37
2022/02/18 06:29:07;;;;;;;11.43;3.57;;;9.10;66.30;;;9.31;55.56;97056.31;6236223;23;20349;-37
2022/02/18 06:31:36;;;;;;;13.40;5.17;;;9.20;66.50;;;9.32;55.81;97056.13;6238494;23;20330;-37
2022/02/18 06:34:04;;;;;;;12.37;4.30;;;9.20;66.70;;;9.33;55.89;97057.81;6237631;23;20026;-37
2022/02/18 06:36:31;;;;;;;12.03;4.87;;;9.20;66.70;;;9.36;56.08;97056.63;6236634;23;20020;-37
2022/02/18 06:38:59;;;;;;;13.83;6.17;;;9.30;66.90;;;9.38;56.02;97047.53;6236274;23;20020;-37
2022/02/18 06:41:27;;;;;;;13.63;5.90;;;9.30;67.00;;;9.39;56.09;97049.16;6237683;23;20224;-37
2022/02/18 06:43:56;;;;;;;15.37;5.13;;;9.30;67.30;;;9.42;56.06;97034.69;6186085;23;20016;-38
2022/02/18 06:46:28;;;;;;;12.30;4.07;;;9.30;67.30;;;9.44;56.27;97028.25;6210110;23;20030;-39
2022/02/18 06:48:56;;;;;;;14.97;4.67;;;9.30;67.40;;;9.46;55.97;97023.59;6235406;23;20030;-39
2022/02/18 06:51:24;;;;;;;9.00;3.47;;;9.40;67.50;;;9.47;56.37;97019.09;6235770;23;20302;-38
2022/02/18 06:53:52;;;;;;;8.10;3.43;;;9.40;67.60;;;9.47;56.47;97019.09;6236647;23;20012;-39
2022/02/18 06:56:40;;;;;;;12.60;3.80;;;9.40;67.90;;;9.51;56.59;97012.44;6246180;23;20018;-39
2022/02/18 06:59:08;;;;;;;10.37;2.97;;;9.40;68.40;;;9.54;56.61;97017.44;6235145;23;20031;-39
2022/02/18 07:01:36;;;;;;;10.13;3.90;;;9.40;68.10;;;9.55;56.80;97012.94;6234691;23;20020;-39
2022/02/18 07:04:04;;;;;;;11.70;3.37;;;9.40;68.40;;;9.58;56.46;97015.25;6235527;23;20340;-39
2022/02/18 07:06:31;;;;;;;12.40;3.83;;;9.40;68.50;;;9.56;56.78;96999.47;6209680;23;20028;-39
2022/02/18 07:08:59;;;;;;;11.70;3.43;;;9.40;68.60;;;9.58;56.69;97000.13;6236715;23;20024;-39
2022/02/18 07:11:27;;;;;;;9.97;2.90;;;9.40;68.60;;;9.58;56.89;96992.16;6235937;23;20012;-39
2022/02/18 07:13:54;;;;;;;12.97;4.57;;;9.50;68.60;;;9.61;56.94;96980.34;6235749;23;20020;-39
2022/02/18 07:16:22;;;;;;;8.93;3.43;;;9.50;68.60;;;9.61;56.68;96981.19;6234620;23;20016;-40
2022/02/18 07:18:50;;;;;;;9.47;3.50;;;9.50;68.70;;;9.63;57.04;96981.88;6234606;23;20004;-40
2022/02/18 07:21:18;;;;;;;10.97;3.13;;;9.50;68.60;;;9.66;56.84;96978.03;6235007;23;20016;-40
2022/02/18 07:23:46;;;;;;;9.23;2.80;;;9.60;68.60;;;9.66;56.83;96970.88;6234676;23;20020;-40
2022/02/18 07:26:13;;;;;;;9.73;4.10;;;9.60;68.50;;;9.69;57.03;96967.03;6237657;23;20031;-39
2022/02/18 07:28:41;;;;;;;11.77;3.47;;;9.60;68.70;;;9.69;57.16;96959.06;6235720;23;20042;-40
2022/02/18 07:31:09;;;;;;;10.10;3.80;;;9.60;69.10;;;9.67;57.29;96958.41;6236732;23;20028;-40
2022/02/18 07:33:38;;;;;;;9.63;3.87;;;9.60;69.40;;;9.71;57.20;96959.72;6234076;23;20016;-40
2022/02/18 07:36:06;;;;;;;7.73;3.23;;;9.60;69.10;;;9.71;57.18;96959.72;6235701;23;20012;-40
2022/02/18 07:38:34;;;;;;;7.77;2.97;;;9.70;69.20;;;9.74;57.31;96938.13;6236412;23;20027;-40
2022/02/18 07:41:05;;;;;;;8.57;2.23;;;9.70;69.30;;;9.75;57.49;96946.91;6208497;23;20322;-40
2022/02/18 07:43:33;;;;;;;5.57;2.43;;;9.70;69.70;;;9.76;58.22;96940.59;6233631;23;20012;-39
2022/02/18 07:46:08;;;;;;;7.37;2.43;;;9.70;70.00;;;9.77;57.62;96942.25;6245837;23;20139;-39
2022/02/18 07:48:36;;;;;;;9.83;2.57;;;9.70;70.30;;;9.79;57.71;96929.59;6235531;23;20026;-39
2022/02/18 07:51:06;;;;;;;12.33;2.80;;;9.80;70.30;;;9.82;58.02;96923.97;6236561;23;20026;-38
2022/02/18 07:53:35;;;;;;;7.13;2.47;;;9.80;71.30;;;9.83;58.48;96933.59;6235344;23;20023;-38
2022/02/18 07:56:03;;;;;;;7.10;2.03;;;9.80;70.70;;;9.83;58.73;96912.34;6236576;23;20020;-38
2022/02/18 07:58:31;;;;;;;4.33;1.97;;;9.80;71.40;;;9.85;58.82;96910.34;6235469;23;20137;-38
2022/02/18 08:00:59;;;;;;;6.73;1.50;;;9.90;72.10;;;9.86;59.32;96902.16;6236293;23;20020;-38
2022/02/18 08:03:27;;;;;;;7.73;2.17;;;9.90;72.90;;;9.88;60.15;96909.97;6235240;23;20027;-38
2022/02/18 08:05:55;;;;;;;10.73;1.93;;;9.90;73.70;;;9.93;60.14;96907.63;6234901;23;20344;-38
2022/02/18 08:08:24;;;;;;;4.57;2.23;;;10.00;74.00;;;9.98;60.44;96910.59;6235289;23;20024;-38
2022/02/18 08:10:53;;;;;;;9.27;2.00;;;10.10;74.80;;;10.03;60.73;96907.41;6236817;23;20022;-38
2022/02/18 08:13:21;;;;;;;6.33;1.90;;;10.10;76.20;;;10.06;60.91;96891.06;6236153;23;20035;-37
2022/02/18 08:15:48;;;;;;;5.83;2.23;;;10.20;76.40;;;10.13;61.59;96889.38;6235308;23;20309;-38
2022/02/18 08:18:20;;;;;;;5.23;1.73;;;10.30;76.50;;;10.19;61.34;96878.00;6234759;23;20221;-38
2022/02/18 08:20:51;;;;;;;3.30;1.67;;;10.30;77.60;;;10.24;61.66;96886.31;6235459;23;20344;-38
2022/02/18 08:23:19;;;;;;;3.50;1.47;;;10.40;78.20;;;10.26;61.84;96867.50;6234497;23;20341;-38
2022/02/18 08:25:48;;;;;;;6.07;1.60;;;10.40;78.70;;;10.29;62.35;96868.97;6208981;23;20310;-38
2022/02/18 08:28:17;;;;;;;3.53;1.87;;;10.40;78.90;;;10.30;62.61;96871.50;6235696;23;20016;-39
2022/02/18 08:30:46;;;;;;;7.27;2.87;;;10.50;79.50;;;10.36;62.21;96864.63;6208493;23;20348;-38
2022/02/18 08:33:14;;;;;;;5.33;1.63;;;10.50;79.90;;;10.36;62.19;96864.63;6234920;23;20380;-38
2022/02/18 08:35:42;;;;;;;5.17;1.50;;;10.50;79.60;;;10.37;62.27;96858.28;6233955;23;20024;-38
2022/02/18 08:38:11;;;;;;;5.47;1.80;;;10.50;79.90;;;10.39;62.30;96864.25;6249501;23;20242;-38
2022/02/18 08:40:39;;;;;;;4.37;2.00;;;10.50;79.80;;;10.42;61.92;96854.09;6250886;23;20012;-38
2022/02/18 08:43:09;;;;;;;5.57;1.50;;;10.50;79.50;;;10.44;62.09;96852.06;6214245;23;20207;-38
2022/02/18 08:45:38;;;;;;;5.07;1.30;;;10.50;79.60;;;10.43;62.29;96847.78;6223999;23;20024;-38
2022/02/18 08:48:08;;;;;;;4.67;1.83;;;10.60;79.50;;;10.49;62.12;96842.72;6249724;23;20051;-38
2022/02/18 08:50:37;;;;;;;6.23;1.80;;;10.60;79.40;;;10.49;61.93;96843.56;6259585;23;20022;-38
2022/02/18 08:53:05;;;;;;;6.87;2.67;;;10.60;79.30;;;10.51;62.31;96840.75;6259963;23;20210;-38
2022/02/18 08:55:33;;;;;;;5.20;1.80;;;10.70;79.30;;;10.57;62.35;96837.34;6248790;23;20032;-38
2022/02/18 08:58:01;;;;;;;5.10;2.03;;;10.70;80.00;;;10.65;62.07;96834.59;6249477;23;20009;-39
2022/02/18 09:00:30;;;;;;;6.80;1.77;;;10.80;78.80;;;10.70;61.95;96823.41;6232441;23;20015;-39
2022/02/18 09:02:58;;;;;;;5.63;2.30;;;10.80;78.50;;;10.77;62.01;96819.00;6236613;23;20016;-38
2022/02/18 09:05:26;;;;;;;5.00;1.70;;;10.90;78.60;;;10.80;61.93;96808.81;6234636;23;20314;-38
2022/02/18 09:07:54;;;;;;;6.63;1.80;;;10.90;79.30;;;10.86;61.66;96801.09;6233894;23;20024;-39
2022/02/18 09:10:22;;;;;;;5.07;1.30;;;11.00;78.10;;;10.93;61.48;96800.19;6234301;23;20042;-38
2022/02/18 09:12:50;;;;;;;3.10;1.40;;;11.00;78.20;;;10.99;61.72;96798.63;6234343;23;20023;-38
2022/02/18 09:15:19;;;;;;;3.10;1.50;;;11.10;78.20;;;11.02;61.33;96790.28;6208936;23;20012;-38
2022/02/18 09:17:53;;;;;;;6.57;1.77;;;11.10;78.20;;;11.09;61.27;96791.19;6245358;23;20013;-38
2022/02/18 09:20:21;;;;;;;8.30;2.40;;;11.20;78.10;;;11.11;61.39;96799.81;6233760;23;20043;-38
2022/02/18 09:22:49;;;;;;;4.40;1.80;;;11.20;77.70;;;11.14;61.50;96794.09;6235604;23;20024;-38
2022/02/18 09:25:16;;;;;;;6.47;1.60;;;11.20;77.50;;;11.18;61.13;96790.06;6236893;23;20024;-38
2022/02/18 09:27:46;;;;;;;6.90;2.60;;;11.30;77.20;;;11.23;60.98;96790.34;6237985;23;20027;-39
2022/02/18 09:30:14;;;;;;;5.50;2.08;;;11.30;77.00;;;11.29;60.53;96796.75;6237296;23;20034;-39
2022/02/18 09:33:01;;;;;;;5.72;2.30;;;11.30;76.70;;;11.35;60.58;96780.00;6248273;23;20028;-39
2022/02/18 09:35:29;;;;;;;6.10;1.88;;;11.40;76.60;;;11.38;60.96;96785.00;6237086;23;20197;-38
2022/02/18 09:37:57;;;;;;;8.23;2.00;;;11.40;76.50;;;11.40;60.86;96779.47;6236731;23;20067;-38
2022/02/18 09:40:25;;;;;;;4.38;2.13;;;11.50;76.70;;;11.42;61.10;96783.59;6237493;23;20348;-38
2022/02/18 09:42:55;;;;;;;5.65;1.75;;;11.50;76.80;;;11.46;61.16;96784.06;6237493;23;20332;-38
2022/02/18 09:45:23;;;;;;;5.45;1.70;;;11.60;76.60;;;11.46;61.13;96773.38;6209691;23;20024;-38
2022/02/18 09:47:52;;;;;;;7.55;1.80;;;11.60;76.60;;;11.52;61.31;96766.47;6210538;23;20028;-38
2022/02/18 09:50:20;;;;;;;7.35;2.92;;;11.70;76.50;;;11.60;61.36;96761.03;6236426;23;20028;-38
2022/02/18 09:53:08;;;;;;;5.45;1.73;;;11.80;76.50;;;11.68;61.17;96768.91;6236850;23;20022;-38
2022/02/18 09:55:39;;;;;;;5.43;2.38;;;11.90;76.80;;;11.75;61.30;96750.31;6209902;23;20012;-38
2022/02/18 09:58:07;;;;;;;4.55;2.60;;;12.00;76.40;;;11.83;61.13;96748.34;6236362;23;20023;-38
2022/02/18 10:00:38;;;;;;;3.25;2.28;;;12.10;76.30;;;11.91;61.33;96739.41;6237607;23;20012;-38
2022/02/18 10:03:10;;;;;;;3.08;1.95;;;12.20;76.10;;;11.96;61.53;96733.50;6247986;23;20377;-38
2022/02/18 10:05:38;;;;;;;4.25;1.30;;;12.30;76.00;;;12.05;61.24;96732.34;6236408;23;20027;-38
2022/02/18 10:08:09;;;;;;;6.38;1.63;;;12.40;75.80;;;12.14;61.26;96725.84;6236339;23;20404;-38
2022/02/18 10:10:56;;;;;;;4.40;1.73;;;12.40;75.60;;;12.24;60.75;96725.50;6236239;23;20202;-38
2022/02/18 10:13:37;;;;;;;5.05;1.73;;;12.50;75.30;;;12.29;61.32;96719.59;6211928;23;20038;-39
2022/02/18 10:16:25;;;;;;;4.13;1.52;;;12.60;75.40;;;12.40;60.80;96729.72;6246465;23;20012;-38
2022/02/18 10:19:01;;;;;;;5.35;1.70;;;12.70;75.00;;;12.48;60.82;96721.56;6236427;23;20031;-38
2022/02/18 10:21:35;;;;;;;3.50;1.48;;;12.80;74.90;;;12.50;60.73;96721.38;6248983;23;20048;-38
2022/02/18 10:24:15;;;;;;;3.33;1.20;;;12.80;74.50;;;12.53;60.19;96724.47;6245678;23;20031;-38
2022/02/18 10:26:51;;;;;;;3.30;1.42;;;12.80;73.90;;;12.56;60.24;96718.75;6236384;23;20317;-38
2022/02/18 10:29:31;;;;;;;3.58;1.40;;;12.80;74.30;;;12.60;60.42;96712.00;6188857;23;20028;-37
2022/02/18 10:32:15;;;;;;;4.45;1.40;;;12.80;74.20;;;12.66;60.12;96707.72;6236613;23;20028;-38
2022/02/18 10:35:04;;;;;;;3.03;1.40;;;12.90;74.10;;;12.70;59.94;96708.97;6236476;23;20012;-38
2022/02/18 10:37:35;;;;;;;3.83;1.70;;;12.90;74.00;;;12.71;59.91;96697.25;6234852;23;20245;-38